sensor_id;sensor_type;location;lat;lon;timestamp;temperature;humidity
16441;DHT22;8330;-33.858;151.184;2023-05-02T00:01:02;19.20;99.90
16441;DHT22;8330;-33.858;151.184;2023-05-02T00:03:33;19.00;99.90
16441;DHT22;8330;-33.858;151.184;2023-05-02T00:06:04;19.00;99.90
16441;DHT22;8330;-33.858;151.184;2023-05-02T00:08:35;19.10;99.90
16441;DHT22;8330;-33.858;151.184;2023-05-02T00:11:06;19.20;99.90
16441;DHT22;8330;-33.858;151.184;2023-05-02T00:13:38;19.30;99.90
16441;DHT22;8330;-33.858;151.184;2023-05-02T00:16:12;19.30;99.90
16441;DHT22;8330;-33.858;151.184;2023-05-02T00:18:45;19.20;99.90
16441;DHT22;8330;-33.858;151.184;2023-05-02T00:21:16;19.30;99.90
16441;DHT22;8330;-33.858;151.184;2023-05-02T00:23:47;19.40;99.90
16441;DHT22;8330;-33.858;151.184;2023-05-02T00:26:18;19.50;99.90
16441;DHT22;8330;-33.858;151.184;2023-05-02T00:28:49;19.70;99.90
16441;DHT22;8330;-33.858;151.184;2023-05-02T00:31:22;19.50;99.90
16441;DHT22;8330;-33.858;151.184;2023-05-02T00:33:53;19.60;99.90
16441;DHT22;8330;-33.858;151.184;2023-05-02T00:36:25;19.70;99.90
16441;DHT22;8330;-33.858;151.184;2023-05-02T00:38:56;19.80;99.90
16441;DHT22;8330;-33.858;151.184;2023-05-02T00:41:28;19.80;99.90
16441;DHT22;8330;-33.858;151.184;2023-05-02T00:43:59;20.00;99.90
16441;DHT22;8330;-33.858;151.184;2023-05-02T00:46:33;20.20;99.90
16441;DHT22;8330;-33.858;151.184;2023-05-02T00:49:04;20.20;99.90
16441;DHT22;8330;-33.858;151.184;2023-05-02T00:51:36;20.30;99.90
16441;DHT22;8330;-33.858;151.184;2023-05-02T00:54:10;20.40;99.90
16441;DHT22;8330;-33.858;151.184;2023-05-02T00:56:41;20.40;99.90
16441;DHT22;8330;-33.858;151.184;2023-05-02T00:59:13;20.30;99.90
16441;DHT22;8330;-33.858;151.184;2023-05-02T01:01:54;20.50;99.90
16441;DHT22;8330;-33.858;151.184;2023-05-02T01:04:33;20.70;99.90
16441;DHT22;8330;-33.858;151.184;2023-05-02T01:07:19;20.70;99.90
16441;DHT22;8330;-33.858;151.184;2023-05-02T01:10:00;20.70;99.90
16441;DHT22;8330;-33.858;151.184;2023-05-02T01:12:36;20.70;99.90
16441;DHT22;8330;-33.858;151.184;2023-05-02T01:15:15;20.70;99.90
16441;DHT22;8330;-33.858;151.184;2023-05-02T01:17:48;20.80;99.90
16441;DHT22;8330;-33.858;151.184;2023-05-02T01:20:22;21.00;99.90
16441;DHT22;8330;-33.858;151.184;2023-05-02T01:22:57;20.90;99.90
16441;DHT22;8330;-33.858;151.184;2023-05-02T01:25:39;21.10;99.90
16441;DHT22;8330;-33.858;151.184;2023-05-02T01:28:19;21.10;99.90
16441;DHT22;8330;-33.858;151.184;2023-05-02T01:30:55;21.20;99.90
16441;DHT22;8330;-33.858;151.184;2023-05-02T01:33:28;21.20;99.90
16441;DHT22;8330;-33.858;151.184;2023-05-02T01:36:01;21.30;99.90
16441;DHT22;8330;-33.858;151.184;2023-05-02T01:38:34;21.30;99.90
16441;DHT22;8330;-33.858;151.184;2023-05-02T01:41:06;21.30;99.90
16441;DHT22;8330;-33.858;151.184;2023-05-02T01:43:38;21.20;99.90
16441;DHT22;8330;-33.858;151.184;2023-05-02T01:46:13;21.30;99.90
16441;DHT22;8330;-33.858;151.184;2023-05-02T01:48:46;21.50;99.90
16441;DHT22;8330;-33.858;151.184;2023-05-02T01:51:19;21.50;99.90
16441;DHT22;8330;-33.858;151.184;2023-05-02T01:53:51;21.60;99.90
16441;DHT22;8330;-33.858;151.184;2023-05-02T01:56:24;21.60;99.90
16441;DHT22;8330;-33.858;151.184;2023-05-02T01:58:57;21.60;99.90
16441;DHT22;8330;-33.858;151.184;2023-05-02T02:01:30;21.60;99.90
16441;DHT22;8330;-33.858;151.184;2023-05-02T02:04:02;21.70;99.90
16441;DHT22;8330;-33.858;151.184;2023-05-02T02:06:34;21.70;99.90
16441;DHT22;8330;-33.858;151.184;2023-05-02T02:09:05;21.80;99.90
16441;DHT22;8330;-33.858;151.184;2023-05-02T02:11:39;21.80;99.90
16441;DHT22;8330;-33.858;151.184;2023-05-02T02:14:18;21.80;99.80
16441;DHT22;8330;-33.858;151.184;2023-05-02T02:16:54;21.80;99.60
16441;DHT22;8330;-33.858;151.184;2023-05-02T02:19:25;21.80;98.90
16441;DHT22;8330;-33.858;151.184;2023-05-02T02:21:58;21.70;98.70
16441;DHT22;8330;-33.858;151.184;2023-05-02T02:24:30;21.80;98.40
16441;DHT22;8330;-33.858;151.184;2023-05-02T02:27:02;21.90;97.80
16441;DHT22;8330;-33.858;151.184;2023-05-02T02:29:33;22.00;98.50
16441;DHT22;8330;-33.858;151.184;2023-05-02T02:32:07;22.00;96.90
16441;DHT22;8330;-33.858;151.184;2023-05-02T02:34:38;22.00;97.50
16441;DHT22;8330;-33.858;151.184;2023-05-02T02:37:15;22.10;97.40
16441;DHT22;8330;-33.858;151.184;2023-05-02T02:39:53;22.00;97.20
16441;DHT22;8330;-33.858;151.184;2023-05-02T02:42:34;22.00;97.10
16441;DHT22;8330;-33.858;151.184;2023-05-02T02:45:17;21.90;97.70
16441;DHT22;8330;-33.858;151.184;2023-05-02T02:48:00;21.80;98.10
16441;DHT22;8330;-33.858;151.184;2023-05-02T02:50:36;21.80;98.30
16441;DHT22;8330;-33.858;151.184;2023-05-02T02:53:11;21.60;97.60
16441;DHT22;8330;-33.858;151.184;2023-05-02T02:55:51;21.50;98.30
16441;DHT22;8330;-33.858;151.184;2023-05-02T02:58:30;21.50;98.50
16441;DHT22;8330;-33.858;151.184;2023-05-02T03:01:09;21.40;97.40
16441;DHT22;8330;-33.858;151.184;2023-05-02T03:03:44;21.60;97.70
16441;DHT22;8330;-33.858;151.184;2023-05-02T03:06:17;21.90;97.10
16441;DHT22;8330;-33.858;151.184;2023-05-02T03:08:48;22.20;95.10
16441;DHT22;8330;-33.858;151.184;2023-05-02T03:11:19;22.30;95.00
16441;DHT22;8330;-33.858;151.184;2023-05-02T03:13:51;22.50;95.30
16441;DHT22;8330;-33.858;151.184;2023-05-02T03:16:36;22.70;94.50
16441;DHT22;8330;-33.858;151.184;2023-05-02T03:19:09;22.60;94.30
16441;DHT22;8330;-33.858;151.184;2023-05-02T03:21:40;22.60;94.20
16441;DHT22;8330;-33.858;151.184;2023-05-02T03:24:11;22.60;94.40
16441;DHT22;8330;-33.858;151.184;2023-05-02T03:26:42;22.50;94.40
16441;DHT22;8330;-33.858;151.184;2023-05-02T03:29:14;22.50;94.60
16441;DHT22;8330;-33.858;151.184;2023-05-02T03:31:45;22.50;93.70
16441;DHT22;8330;-33.858;151.184;2023-05-02T03:34:18;22.60;93.50
16441;DHT22;8330;-33.858;151.184;2023-05-02T03:36:49;22.60;93.60
16441;DHT22;8330;-33.858;151.184;2023-05-02T03:39:20;22.50;93.70
16441;DHT22;8330;-33.858;151.184;2023-05-02T03:41:51;22.40;92.30
16441;DHT22;8330;-33.858;151.184;2023-05-02T03:44:22;22.40;92.70
16441;DHT22;8330;-33.858;151.184;2023-05-02T03:46:53;22.40;92.70
16441;DHT22;8330;-33.858;151.184;2023-05-02T03:49:26;22.30;93.20
16441;DHT22;8330;-33.858;151.184;2023-05-02T03:51:57;22.30;93.50
16441;DHT22;8330;-33.858;151.184;2023-05-02T03:54:31;22.50;93.20
16441;DHT22;8330;-33.858;151.184;2023-05-02T03:57:02;22.60;93.20
16441;DHT22;8330;-33.858;151.184;2023-05-02T03:59:34;22.70;93.00
16441;DHT22;8330;-33.858;151.184;2023-05-02T04:02:08;22.50;93.10
16441;DHT22;8330;-33.858;151.184;2023-05-02T04:04:41;22.60;93.50
16441;DHT22;8330;-33.858;151.184;2023-05-02T04:07:12;22.60;93.10
16441;DHT22;8330;-33.858;151.184;2023-05-02T04:09:46;22.70;92.70
16441;DHT22;8330;-33.858;151.184;2023-05-02T04:12:17;22.50;93.00
16441;DHT22;8330;-33.858;151.184;2023-05-02T04:14:48;22.60;92.40
16441;DHT22;8330;-33.858;151.184;2023-05-02T04:17:19;22.60;92.90
16441;DHT22;8330;-33.858;151.184;2023-05-02T04:19:52;22.60;92.30
16441;DHT22;8330;-33.858;151.184;2023-05-02T04:22:25;22.60;92.50
16441;DHT22;8330;-33.858;151.184;2023-05-02T04:24:56;22.60;92.60
16441;DHT22;8330;-33.858;151.184;2023-05-02T04:27:29;22.50;92.30
16441;DHT22;8330;-33.858;151.184;2023-05-02T04:30:00;22.40;93.00
16441;DHT22;8330;-33.858;151.184;2023-05-02T04:32:31;22.20;93.00
16441;DHT22;8330;-33.858;151.184;2023-05-02T04:35:05;22.10;93.90
16441;DHT22;8330;-33.858;151.184;2023-05-02T04:37:36;22.10;93.70
16441;DHT22;8330;-33.858;151.184;2023-05-02T04:40:08;22.20;94.30
16441;DHT22;8330;-33.858;151.184;2023-05-02T04:42:39;22.30;93.90
16441;DHT22;8330;-33.858;151.184;2023-05-02T04:45:11;22.30;93.60
16441;DHT22;8330;-33.858;151.184;2023-05-02T04:47:42;22.20;94.30
16441;DHT22;8330;-33.858;151.184;2023-05-02T04:50:15;22.20;94.10
16441;DHT22;8330;-33.858;151.184;2023-05-02T04:52:46;22.20;94.10
16441;DHT22;8330;-33.858;151.184;2023-05-02T04:55:18;22.20;93.80
16441;DHT22;8330;-33.858;151.184;2023-05-02T04:57:49;22.40;93.90
16441;DHT22;8330;-33.858;151.184;2023-05-02T05:00:21;22.40;94.40
16441;DHT22;8330;-33.858;151.184;2023-05-02T05:02:52;22.50;94.60
16441;DHT22;8330;-33.858;151.184;2023-05-02T05:05:25;22.60;94.60
16441;DHT22;8330;-33.858;151.184;2023-05-02T05:07:56;22.60;93.20
16441;DHT22;8330;-33.858;151.184;2023-05-02T05:10:27;22.50;93.40
16441;DHT22;8330;-33.858;151.184;2023-05-02T05:12:58;22.50;92.70
16441;DHT22;8330;-33.858;151.184;2023-05-02T05:15:30;22.40;93.30
16441;DHT22;8330;-33.858;151.184;2023-05-02T05:18:01;22.40;93.50
16441;DHT22;8330;-33.858;151.184;2023-05-02T05:20:34;22.30;92.70
16441;DHT22;8330;-33.858;151.184;2023-05-02T05:23:05;22.20;93.00
16441;DHT22;8330;-33.858;151.184;2023-05-02T05:25:36;22.30;93.30
16441;DHT22;8330;-33.858;151.184;2023-05-02T05:28:07;22.30;93.70
16441;DHT22;8330;-33.858;151.184;2023-05-02T05:30:38;22.30;93.80
16441;DHT22;8330;-33.858;151.184;2023-05-02T05:33:09;22.20;93.50
16441;DHT22;8330;-33.858;151.184;2023-05-02T05:35:43;22.20;93.70
16441;DHT22;8330;-33.858;151.184;2023-05-02T05:38:15;22.30;94.40
16441;DHT22;8330;-33.858;151.184;2023-05-02T05:40:49;22.20;93.70
16441;DHT22;8330;-33.858;151.184;2023-05-02T05:43:22;22.20;94.00
16441;DHT22;8330;-33.858;151.184;2023-05-02T05:45:53;22.20;93.90
16441;DHT22;8330;-33.858;151.184;2023-05-02T05:48:24;22.20;93.60
16441;DHT22;8330;-33.858;151.184;2023-05-02T05:50:57;22.10;94.10
16441;DHT22;8330;-33.858;151.184;2023-05-02T05:53:32;22.00;94.10
16441;DHT22;8330;-33.858;151.184;2023-05-02T05:56:10;22.10;94.40
16441;DHT22;8330;-33.858;151.184;2023-05-02T05:58:42;22.20;94.00
16441;DHT22;8330;-33.858;151.184;2023-05-02T06:01:15;22.30;94.30
16441;DHT22;8330;-33.858;151.184;2023-05-02T06:03:46;22.40;93.40
16441;DHT22;8330;-33.858;151.184;2023-05-02T06:06:19;22.30;93.50
16441;DHT22;8330;-33.858;151.184;2023-05-02T06:08:50;22.30;93.00
16441;DHT22;8330;-33.858;151.184;2023-05-02T06:11:22;22.50;92.90
16441;DHT22;8330;-33.858;151.184;2023-05-02T06:13:53;22.60;93.00
16441;DHT22;8330;-33.858;151.184;2023-05-02T06:16:24;22.50;93.40
16441;DHT22;8330;-33.858;151.184;2023-05-02T06:18:55;22.30;93.60
16441;DHT22;8330;-33.858;151.184;2023-05-02T06:21:32;22.30;93.60
16441;DHT22;8330;-33.858;151.184;2023-05-02T06:24:03;22.20;93.50
16441;DHT22;8330;-33.858;151.184;2023-05-02T06:26:34;22.10;94.00
16441;DHT22;8330;-33.858;151.184;2023-05-02T06:29:05;22.00;94.10
16441;DHT22;8330;-33.858;151.184;2023-05-02T06:31:36;22.10;94.40
16441;DHT22;8330;-33.858;151.184;2023-05-02T06:34:09;22.00;95.20
16441;DHT22;8330;-33.858;151.184;2023-05-02T06:36:42;21.90;95.60
16441;DHT22;8330;-33.858;151.184;2023-05-02T06:39:13;21.90;94.80
16441;DHT22;8330;-33.858;151.184;2023-05-02T06:41:44;21.80;95.20
16441;DHT22;8330;-33.858;151.184;2023-05-02T06:44:15;21.70;95.90
16441;DHT22;8330;-33.858;151.184;2023-05-02T06:46:47;21.70;96.30
16441;DHT22;8330;-33.858;151.184;2023-05-02T06:49:18;21.70;96.70
16441;DHT22;8330;-33.858;151.184;2023-05-02T06:51:51;21.70;96.90
16441;DHT22;8330;-33.858;151.184;2023-05-02T06:54:22;21.60;96.70
16441;DHT22;8330;-33.858;151.184;2023-05-02T06:56:53;21.60;97.00
16441;DHT22;8330;-33.858;151.184;2023-05-02T06:59:24;21.60;97.10
16441;DHT22;8330;-33.858;151.184;2023-05-02T07:01:55;21.50;96.70
16441;DHT22;8330;-33.858;151.184;2023-05-02T07:04:26;21.50;97.10
16441;DHT22;8330;-33.858;151.184;2023-05-02T07:06:59;21.50;97.40
16441;DHT22;8330;-33.858;151.184;2023-05-02T07:09:31;21.40;97.70
16441;DHT22;8330;-33.858;151.184;2023-05-02T07:12:02;21.40;97.80
16441;DHT22;8330;-33.858;151.184;2023-05-02T07:14:33;21.40;98.00
16441;DHT22;8330;-33.858;151.184;2023-05-02T07:17:04;21.40;98.10
16441;DHT22;8330;-33.858;151.184;2023-05-02T07:19:35;21.30;98.10
16441;DHT22;8330;-33.858;151.184;2023-05-02T07:22:08;21.30;98.70
16441;DHT22;8330;-33.858;151.184;2023-05-02T07:24:41;21.30;98.00
16441;DHT22;8330;-33.858;151.184;2023-05-02T07:27:13;21.20;98.50
16441;DHT22;8330;-33.858;151.184;2023-05-02T07:29:44;21.20;99.00
16441;DHT22;8330;-33.858;151.184;2023-05-02T07:32:15;21.20;99.20
16441;DHT22;8330;-33.858;151.184;2023-05-02T07:34:46;21.20;99.50
16441;DHT22;8330;-33.858;151.184;2023-05-02T07:37:22;21.10;99.90
16441;DHT22;8330;-33.858;151.184;2023-05-02T07:39:53;21.10;99.90
16441;DHT22;8330;-33.858;151.184;2023-05-02T07:42:29;21.10;99.90
16441;DHT22;8330;-33.858;151.184;2023-05-02T07:45:00;21.00;99.90
16441;DHT22;8330;-33.858;151.184;2023-05-02T07:47:31;21.00;99.90
16441;DHT22;8330;-33.858;151.184;2023-05-02T07:50:03;21.00;99.90
16441;DHT22;8330;-33.858;151.184;2023-05-02T07:52:36;21.00;99.90
16441;DHT22;8330;-33.858;151.184;2023-05-02T07:55:07;20.90;99.90
16441;DHT22;8330;-33.858;151.184;2023-05-02T07:57:39;20.90;99.90
16441;DHT22;8330;-33.858;151.184;2023-05-02T08:00:10;20.80;99.90
16441;DHT22;8330;-33.858;151.184;2023-05-02T08:02:42;20.80;99.90
16441;DHT22;8330;-33.858;151.184;2023-05-02T08:05:13;20.80;99.90
16441;DHT22;8330;-33.858;151.184;2023-05-02T08:07:46;20.80;99.90
16441;DHT22;8330;-33.858;151.184;2023-05-02T08:10:17;20.70;99.90
16441;DHT22;8330;-33.858;151.184;2023-05-02T08:12:48;20.70;99.90
16441;DHT22;8330;-33.858;151.184;2023-05-02T08:15:19;20.70;99.90
16441;DHT22;8330;-33.858;151.184;2023-05-02T08:17:50;20.60;99.90
16441;DHT22;8330;-33.858;151.184;2023-05-02T08:20:21;20.60;99.90
16441;DHT22;8330;-33.858;151.184;2023-05-02T08:22:54;20.50;99.90
16441;DHT22;8330;-33.858;151.184;2023-05-02T08:25:25;20.50;99.90
16441;DHT22;8330;-33.858;151.184;2023-05-02T08:27:57;20.50;99.90
16441;DHT22;8330;-33.858;151.184;2023-05-02T08:30:28;20.50;99.90
16441;DHT22;8330;-33.858;151.184;2023-05-02T08:32:59;20.40;99.90
16441;DHT22;8330;-33.858;151.184;2023-05-02T08:35:30;20.40;99.90
16441;DHT22;8330;-33.858;151.184;2023-05-02T08:38:03;20.40;99.90
16441;DHT22;8330;-33.858;151.184;2023-05-02T08:40:36;20.50;99.90
16441;DHT22;8330;-33.858;151.184;2023-05-02T08:43:07;20.50;99.90
16441;DHT22;8330;-33.858;151.184;2023-05-02T08:45:41;20.50;99.90
16441;DHT22;8330;-33.858;151.184;2023-05-02T08:48:13;20.50;99.90
16441;DHT22;8330;-33.858;151.184;2023-05-02T08:50:45;20.50;99.90
16441;DHT22;8330;-33.858;151.184;2023-05-02T08:53:19;20.50;99.90
16441;DHT22;8330;-33.858;151.184;2023-05-02T08:55:51;20.60;99.90
16441;DHT22;8330;-33.858;151.184;2023-05-02T08:58:22;20.60;99.90
16441;DHT22;8330;-33.858;151.184;2023-05-02T09:00:54;20.50;99.90
16441;DHT22;8330;-33.858;151.184;2023-05-02T09:03:30;20.50;99.90
16441;DHT22;8330;-33.858;151.184;2023-05-02T09:06:06;20.60;99.90
16441;DHT22;8330;-33.858;151.184;2023-05-02T09:08:39;20.60;99.90
16441;DHT22;8330;-33.858;151.184;2023-05-02T09:11:11;20.60;99.90
16441;DHT22;8330;-33.858;151.184;2023-05-02T09:13:43;20.50;99.90
16441;DHT22;8330;-33.858;151.184;2023-05-02T09:16:16;20.50;99.90
16441;DHT22;8330;-33.858;151.184;2023-05-02T09:18:50;20.50;99.90
16441;DHT22;8330;-33.858;151.184;2023-05-02T09:21:22;20.50;99.90
16441;DHT22;8330;-33.858;151.184;2023-05-02T09:23:56;20.50;99.90
16441;DHT22;8330;-33.858;151.184;2023-05-02T09:26:28;20.50;99.90
16441;DHT22;8330;-33.858;151.184;2023-05-02T09:29:00;20.50;99.90
16441;DHT22;8330;-33.858;151.184;2023-05-02T09:31:32;20.50;99.90
16441;DHT22;8330;-33.858;151.184;2023-05-02T09:34:09;20.40;99.90
16441;DHT22;8330;-33.858;151.184;2023-05-02T09:36:41;20.30;99.90
16441;DHT22;8330;-33.858;151.184;2023-05-02T09:39:15;20.20;99.90
16441;DHT22;8330;-33.858;151.184;2023-05-02T09:41:47;20.30;99.90
16441;DHT22;8330;-33.858;151.184;2023-05-02T09:44:20;20.20;99.90
16441;DHT22;8330;-33.858;151.184;2023-05-02T09:46:52;20.30;99.90
16441;DHT22;8330;-33.858;151.184;2023-05-02T09:49:39;20.20;99.90
16441;DHT22;8330;-33.858;151.184;2023-05-02T09:52:12;20.20;99.90
16441;DHT22;8330;-33.858;151.184;2023-05-02T09:54:45;20.20;99.90
16441;DHT22;8330;-33.858;151.184;2023-05-02T09:57:17;20.10;99.90
16441;DHT22;8330;-33.858;151.184;2023-05-02T09:59:56;20.10;99.90
16441;DHT22;8330;-33.858;151.184;2023-05-02T10:02:30;20.00;99.90
16441;DHT22;8330;-33.858;151.184;2023-05-02T10:05:02;20.00;99.90
16441;DHT22;8330;-33.858;151.184;2023-05-02T10:07:36;20.00;99.90
16441;DHT22;8330;-33.858;151.184;2023-05-02T10:10:13;19.90;99.90
16441;DHT22;8330;-33.858;151.184;2023-05-02T10:12:45;19.90;99.90
16441;DHT22;8330;-33.858;151.184;2023-05-02T10:15:21;19.80;99.90
16441;DHT22;8330;-33.858;151.184;2023-05-02T10:17:58;19.90;99.90
16441;DHT22;8330;-33.858;151.184;2023-05-02T10:20:33;19.90;99.90
16441;DHT22;8330;-33.858;151.184;2023-05-02T10:23:05;19.90;99.90
16441;DHT22;8330;-33.858;151.184;2023-05-02T10:25:38;19.80;99.90
16441;DHT22;8330;-33.858;151.184;2023-05-02T10:28:10;19.90;99.90
16441;DHT22;8330;-33.858;151.184;2023-05-02T10:30:41;19.80;99.90
16441;DHT22;8330;-33.858;151.184;2023-05-02T10:33:14;19.80;99.90
16441;DHT22;8330;-33.858;151.184;2023-05-02T10:35:46;19.80;99.90
16441;DHT22;8330;-33.858;151.184;2023-05-02T10:38:19;19.80;99.90
16441;DHT22;8330;-33.858;151.184;2023-05-02T10:40:59;19.80;99.90
16441;DHT22;8330;-33.858;151.184;2023-05-02T10:43:34;19.70;99.90
16441;DHT22;8330;-33.858;151.184;2023-05-02T10:46:29;19.60;99.90
16441;DHT22;8330;-33.858;151.184;2023-05-02T10:49:02;19.60;99.90
16441;DHT22;8330;-33.858;151.184;2023-05-02T10:51:34;19.60;99.90
16441;DHT22;8330;-33.858;151.184;2023-05-02T10:54:21;19.60;99.90
16441;DHT22;8330;-33.858;151.184;2023-05-02T10:57:05;19.60;99.90
16441;DHT22;8330;-33.858;151.184;2023-05-02T10:59:38;19.60;99.90
16441;DHT22;8330;-33.858;151.184;2023-05-02T11:05:12;19.50;99.90
16441;DHT22;8330;-33.858;151.184;2023-05-02T11:07:44;19.50;99.90
16441;DHT22;8330;-33.858;151.184;2023-05-02T11:10:27;19.50;99.90
16441;DHT22;8330;-33.858;151.184;2023-05-02T11:13:01;19.40;99.90
16441;DHT22;8330;-33.858;151.184;2023-05-02T11:15:55;19.40;99.90
16441;DHT22;8330;-33.858;151.184;2023-05-02T11:18:26;19.40;99.90
16441;DHT22;8330;-33.858;151.184;2023-05-02T11:21:30;19.30;99.90
16441;DHT22;8330;-33.858;151.184;2023-05-02T11:24:37;19.20;99.90
16441;DHT22;8330;-33.858;151.184;2023-05-02T11:27:38;19.20;99.90
16441;DHT22;8330;-33.858;151.184;2023-05-02T11:30:12;19.20;99.90
16441;DHT22;8330;-33.858;151.184;2023-05-02T11:33:10;19.20;99.90
16441;DHT22;8330;-33.858;151.184;2023-05-02T11:35:45;19.10;99.90
16441;DHT22;8330;-33.858;151.184;2023-05-02T11:38:21;19.10;99.90
16441;DHT22;8330;-33.858;151.184;2023-05-02T11:40:54;19.00;99.90
16441;DHT22;8330;-33.858;151.184;2023-05-02T11:43:26;19.00;99.90
16441;DHT22;8330;-33.858;151.184;2023-05-02T11:46:00;19.00;99.90
16441;DHT22;8330;-33.858;151.184;2023-05-02T11:48:32;19.00;99.90
16441;DHT22;8330;-33.858;151.184;2023-05-02T11:51:04;19.00;99.90
16441;DHT22;8330;-33.858;151.184;2023-05-02T11:53:40;19.00;99.90
16441;DHT22;8330;-33.858;151.184;2023-05-02T11:56:13;18.90;99.90
16441;DHT22;8330;-33.858;151.184;2023-05-02T11:58:44;18.90;99.90
16441;DHT22;8330;-33.858;151.184;2023-05-02T12:01:17;18.90;99.90
16441;DHT22;8330;-33.858;151.184;2023-05-02T12:03:48;18.90;99.90
16441;DHT22;8330;-33.858;151.184;2023-05-02T12:06:19;18.90;99.90
16441;DHT22;8330;-33.858;151.184;2023-05-02T12:08:50;18.80;99.90
16441;DHT22;8330;-33.858;151.184;2023-05-02T12:11:23;18.80;99.90
16441;DHT22;8330;-33.858;151.184;2023-05-02T12:13:55;18.80;99.90
16441;DHT22;8330;-33.858;151.184;2023-05-02T12:16:28;18.70;99.90
16441;DHT22;8330;-33.858;151.184;2023-05-02T12:18:59;18.60;99.90
16441;DHT22;8330;-33.858;151.184;2023-05-02T12:21:31;18.60;99.90
16441;DHT22;8330;-33.858;151.184;2023-05-02T12:24:03;18.50;99.90
16441;DHT22;8330;-33.858;151.184;2023-05-02T12:26:35;18.40;99.90
16441;DHT22;8330;-33.858;151.184;2023-05-02T12:29:06;18.40;99.90
16441;DHT22;8330;-33.858;151.184;2023-05-02T12:31:39;18.30;99.90
16441;DHT22;8330;-33.858;151.184;2023-05-02T12:34:32;18.20;99.90
16441;DHT22;8330;-33.858;151.184;2023-05-02T12:37:04;18.20;99.90
16441;DHT22;8330;-33.858;151.184;2023-05-02T12:39:36;18.20;99.90
16441;DHT22;8330;-33.858;151.184;2023-05-02T12:42:11;18.20;99.90
16441;DHT22;8330;-33.858;151.184;2023-05-02T12:44:43;18.20;99.90
16441;DHT22;8330;-33.858;151.184;2023-05-02T12:47:17;18.20;99.90
16441;DHT22;8330;-33.858;151.184;2023-05-02T12:49:52;18.10;99.90
16441;DHT22;8330;-33.858;151.184;2023-05-02T12:52:46;18.10;99.90
16441;DHT22;8330;-33.858;151.184;2023-05-02T12:55:18;18.00;99.90
16441;DHT22;8330;-33.858;151.184;2023-05-02T12:57:59;18.00;99.90
16441;DHT22;8330;-33.858;151.184;2023-05-02T13:00:31;17.90;99.90
16441;DHT22;8330;-33.858;151.184;2023-05-02T13:03:05;17.90;99.90
16441;DHT22;8330;-33.858;151.184;2023-05-02T13:05:36;17.90;99.90
16441;DHT22;8330;-33.858;151.184;2023-05-02T13:08:07;17.80;99.90
16441;DHT22;8330;-33.858;151.184;2023-05-02T13:10:39;17.80;99.90
16441;DHT22;8330;-33.858;151.184;2023-05-02T13:13:10;17.70;99.90
16441;DHT22;8330;-33.858;151.184;2023-05-02T13:15:41;17.70;99.90
16441;DHT22;8330;-33.858;151.184;2023-05-02T13:18:14;17.70;99.90
16441;DHT22;8330;-33.858;151.184;2023-05-02T13:20:45;17.60;99.90
16441;DHT22;8330;-33.858;151.184;2023-05-02T13:23:16;17.60;99.90
16441;DHT22;8330;-33.858;151.184;2023-05-02T13:25:47;17.60;99.90
16441;DHT22;8330;-33.858;151.184;2023-05-02T13:28:19;17.60;99.90
16441;DHT22;8330;-33.858;151.184;2023-05-02T13:30:50;17.70;99.90
16441;DHT22;8330;-33.858;151.184;2023-05-02T13:33:23;17.70;99.90
16441;DHT22;8330;-33.858;151.184;2023-05-02T13:35:54;17.70;99.90
16441;DHT22;8330;-33.858;151.184;2023-05-02T13:38:26;17.70;99.90
16441;DHT22;8330;-33.858;151.184;2023-05-02T13:40:57;17.70;99.90
16441;DHT22;8330;-33.858;151.184;2023-05-02T13:43:28;17.70;99.90
16441;DHT22;8330;-33.858;151.184;2023-05-02T13:46:02;17.70;99.90
16441;DHT22;8330;-33.858;151.184;2023-05-02T13:48:36;17.70;99.90
16441;DHT22;8330;-33.858;151.184;2023-05-02T13:51:07;17.70;99.90
16441;DHT22;8330;-33.858;151.184;2023-05-02T13:53:38;17.60;99.90
16441;DHT22;8330;-33.858;151.184;2023-05-02T13:56:12;17.60;99.90
16441;DHT22;8330;-33.858;151.184;2023-05-02T13:58:49;17.60;99.90
16441;DHT22;8330;-33.858;151.184;2023-05-02T14:01:20;17.50;99.90
16441;DHT22;8330;-33.858;151.184;2023-05-02T14:03:55;17.50;99.90
16441;DHT22;8330;-33.858;151.184;2023-05-02T14:06:26;17.40;99.90
16441;DHT22;8330;-33.858;151.184;2023-05-02T14:08:58;17.40;99.90
16441;DHT22;8330;-33.858;151.184;2023-05-02T14:11:30;17.40;99.90
16441;DHT22;8330;-33.858;151.184;2023-05-02T14:14:01;17.40;99.90
16441;DHT22;8330;-33.858;151.184;2023-05-02T14:16:32;17.40;99.90
16441;DHT22;8330;-33.858;151.184;2023-05-02T14:19:06;17.40;99.90
16441;DHT22;8330;-33.858;151.184;2023-05-02T14:21:37;17.40;99.90
16441;DHT22;8330;-33.858;151.184;2023-05-02T14:24:08;17.30;99.90
16441;DHT22;8330;-33.858;151.184;2023-05-02T14:26:40;17.20;99.90
16441;DHT22;8330;-33.858;151.184;2023-05-02T14:29:12;17.30;99.90
16441;DHT22;8330;-33.858;151.184;2023-05-02T14:31:43;17.30;99.90
16441;DHT22;8330;-33.858;151.184;2023-05-02T14:34:16;17.30;99.90
16441;DHT22;8330;-33.858;151.184;2023-05-02T14:36:48;17.20;99.90
16441;DHT22;8330;-33.858;151.184;2023-05-02T14:39:19;17.20;99.90
16441;DHT22;8330;-33.858;151.184;2023-05-02T14:41:51;17.20;99.90
16441;DHT22;8330;-33.858;151.184;2023-05-02T14:44:22;17.20;99.90
16441;DHT22;8330;-33.858;151.184;2023-05-02T14:46:55;17.20;99.90
16441;DHT22;8330;-33.858;151.184;2023-05-02T14:49:28;17.20;99.90
16441;DHT22;8330;-33.858;151.184;2023-05-02T14:51:59;17.20;99.90
16441;DHT22;8330;-33.858;151.184;2023-05-02T14:54:30;17.10;99.90
16441;DHT22;8330;-33.858;151.184;2023-05-02T14:57:01;17.10;99.90
16441;DHT22;8330;-33.858;151.184;2023-05-02T14:59:32;17.10;99.90
16441;DHT22;8330;-33.858;151.184;2023-05-02T15:02:04;17.20;99.90
16441;DHT22;8330;-33.858;151.184;2023-05-02T15:04:37;17.10;99.90
16441;DHT22;8330;-33.858;151.184;2023-05-02T15:07:08;17.10;99.90
16441;DHT22;8330;-33.858;151.184;2023-05-02T15:09:39;17.20;99.90
16441;DHT22;8330;-33.858;151.184;2023-05-02T15:12:10;17.20;99.90
16441;DHT22;8330;-33.858;151.184;2023-05-02T15:14:41;17.20;99.90
16441;DHT22;8330;-33.858;151.184;2023-05-02T15:17:12;17.20;99.90
16441;DHT22;8330;-33.858;151.184;2023-05-02T15:19:45;17.20;99.90
16441;DHT22;8330;-33.858;151.184;2023-05-02T15:22:16;17.20;99.90
16441;DHT22;8330;-33.858;151.184;2023-05-02T15:24:47;17.20;99.90
16441;DHT22;8330;-33.858;151.184;2023-05-02T15:27:18;17.20;99.90
16441;DHT22;8330;-33.858;151.184;2023-05-02T15:29:49;17.20;99.90
16441;DHT22;8330;-33.858;151.184;2023-05-02T15:32:20;17.20;99.90
16441;DHT22;8330;-33.858;151.184;2023-05-02T15:34:53;17.20;99.90
16441;DHT22;8330;-33.858;151.184;2023-05-02T15:37:25;17.20;99.90
16441;DHT22;8330;-33.858;151.184;2023-05-02T15:39:56;17.20;99.90
16441;DHT22;8330;-33.858;151.184;2023-05-02T15:42:27;17.20;99.90